This is the latest recevied weather packets stored in our database for station/object IK3SVW-3. If no packets are shown the sender has not sent any weather packets the latest 10 day(s).
| Time | Temp. | Humidity | Pressure | Rain* | Wind** | Luminosity | Snow |
|---|---|---|---|---|---|---|---|
| 1777883205 | 20.56° C | 35% | 1017 hPa | 0 mm | - | - | - |
| 1777881885 | 20° C | 36% | 1017 hPa | 0 mm | - | - | - |
| 1777881107 | 19.44° C | 36% | 1017 hPa | 0 mm | - | - | - |
| 1777879605 | 18.89° C | 39% | 1016 hPa | 0 mm | - | - | - |
| 1777878286 | 18.33° C | 44% | 1016 hPa | 0 mm | - | - | - |
| 1777877985 | 18.33° C | 45% | 1016 hPa | 0 mm | - | - | - |
| 1777876005 | 17.22° C | 47% | 1016 hPa | 0 mm | - | - | - |
| 1777875346 | 17.22° C | 47% | 1016 hPa | 0 mm | - | - | - |
| 1777874689 | 16.67° C | 48% | 1016 hPa | 0 mm | - | - | - |
| 1777873065 | 16.11° C | 51% | 1016 hPa | 0 mm | - | - | - |
| 1777872405 | 15.56° C | 53% | 1016 hPa | 0 mm | - | - | - |
| 1777871088 | 15° C | 55% | 1016 hPa | 0 mm | - | - | - |
| 1777870667 | 15° C | 55% | 1016 hPa | 0 mm | - | - | - |
| 1777870005 | 15° C | 55% | 1016 hPa | 0 mm | - | - | - |
| 1777866646 | 15° C | 55% | 1015 hPa | 0 mm | - | - | - |
| 1777865985 | 15° C | 55% | 1015 hPa | 0 mm | - | - | - |
| 1777865330 | 15° C | 54% | 1015 hPa | 0 mm | - | - | - |
| 1777864665 | 15° C | 54% | 1015 hPa | 0 mm | - | - | - |
| 1777864036 | 15.56° C | 54% | 1015 hPa | 0 mm | - | - | - |
| 1777864005 | 15.56° C | 54% | 1015 hPa | 0 mm | - | - | - |
| 1777863285 | 15.56° C | 54% | 1016 hPa | 0 mm | - | - | - |
| 1777862632 | 15.56° C | 55% | 1016 hPa | 0 mm | - | - | - |
| 1777861977 | 15.56° C | 55% | 1016 hPa | 0 mm | - | - | - |
| 1777860286 | 15.56° C | 54% | 1015 hPa | 0 mm | - | - | - |
| 1777858606 | 16.11° C | 53% | 1015 hPa | 0 mm | - | - | - |
* Rain latest hour (hover to see other rain measurements)
** Current wind speed in m/s (hover to see current wind gust speed)